Time;durP1;ratioP1;P1;durP2;ratioP2;P2;SDS_P1;SDS_P2;PMS_P1;PMS_P2;Temp;Humidity;BMP_temperature;BMP_pressure;BME280_temperature;BME280_humidity;BME280_pressure;Samples;Min_cycle;Max_cycle;Signal;HPM_P1;HPM_P2
2021/07/10 00:00:29;;;;;;;24.50;12.57;;;22.10;73.90;;;;;;5118428;27;20391;-76
2021/07/10 00:02:55;;;;;;;18.65;11.90;;;22.00;73.90;;;;;;5118108;27;20039;-76
2021/07/10 00:05:20;;;;;;;18.75;11.35;;;22.00;73.90;;;;;;5112568;27;20024;-76
2021/07/10 00:07:46;;;;;;;20.58;11.45;;;22.00;73.80;;;;;;5112347;28;20447;-76
2021/07/10 00:10:15;;;;;;;19.85;11.30;;;21.90;73.50;;;;;;5114239;28;20027;-75
2021/07/10 00:12:42;;;;;;;15.93;10.93;;;21.90;73.60;;;;;;5121491;27;20047;-75
2021/07/10 00:15:10;;;;;;;16.08;12.10;;;21.90;73.80;;;;;;5120876;27;20080;-76
2021/07/10 00:17:37;;;;;;;21.42;12.80;;;21.80;74.10;;;;;;5119141;27;20485;-75
2021/07/10 00:20:05;;;;;;;19.58;12.07;;;21.90;74.40;;;;;;5112186;28;20036;-75
2021/07/10 00:22:31;;;;;;;20.38;12.10;;;21.80;74.60;;;;;;5107040;28;20039;-75
2021/07/10 00:24:56;;;;;;;19.95;11.13;;;21.70;74.70;;;;;;5101487;27;20027;-75
2021/07/10 00:27:22;;;;;;;19.45;11.10;;;21.70;74.70;;;;;;5112597;28;20028;-75
2021/07/10 00:29:48;;;;;;;15.60;9.93;;;21.70;74.90;;;;;;5113216;27;20039;-75
2021/07/10 00:32:14;;;;;;;17.55;9.75;;;21.60;74.90;;;;;;5113457;27;20054;-75
2021/07/10 00:34:40;;;;;;;20.15;9.45;;;21.70;75.10;;;;;;5109927;28;20020;-75
2021/07/10 00:37:06;;;;;;;14.85;10.55;;;21.60;75.20;;;;;;5106625;27;20080;-75
2021/07/10 00:39:34;;;;;;;16.95;11.82;;;21.60;75.30;;;;;;5105719;28;20450;-75
2021/07/10 00:42:00;;;;;;;22.27;11.80;;;21.50;75.40;;;;;;5106431;28;20046;-75
2021/07/10 00:44:29;;;;;;;17.77;11.00;;;21.50;76.00;;;;;;5112521;28;20387;-75
2021/07/10 00:46:54;;;;;;;19.42;11.75;;;21.50;75.40;;;;;;5116511;28;20043;-75
2021/07/10 00:49:20;;;;;;;24.48;12.55;;;21.40;75.90;;;;;;5115564;28;20622;-75
2021/07/10 00:51:52;;;;;;;21.67;11.45;;;21.50;75.40;;;;;;5121112;28;20023;-75
2021/07/10 00:54:17;;;;;;;19.00;11.93;;;21.40;75.30;;;;;;5109723;28;20035;-75
2021/07/10 00:56:45;;;;;;;17.55;11.05;;;21.40;75.40;;;;;;5112511;28;20038;-75
2021/07/10 00:59:13;;;;;;;18.92;10.88;;;21.40;75.30;;;;;;5110783;28;20062;-75
2021/07/10 01:01:40;;;;;;;21.23;12.05;;;21.40;75.50;;;;;;5110353;28;20043;-75
2021/07/10 01:04:06;;;;;;;21.48;12.48;;;21.40;75.50;;;;;;5094361;28;20119;-75
2021/07/10 01:06:31;;;;;;;18.30;12.60;;;21.40;75.50;;;;;;5117913;28;20141;-75
2021/07/10 01:08:57;;;;;;;21.38;12.88;;;21.40;75.60;;;;;;5118618;28;20034;-75
2021/07/10 01:11:26;;;;;;;26.05;12.88;;;21.40;75.60;;;;;;5119007;28;20103;-76
2021/07/10 01:13:52;;;;;;;18.77;12.30;;;21.30;75.60;;;;;;5125902;28;20076;-75
2021/07/10 01:16:18;;;;;;;21.02;11.90;;;21.30;75.60;;;;;;5127008;28;20463;-76
2021/07/10 01:18:43;;;;;;;20.60;12.15;;;21.30;75.70;;;;;;5112755;28;20027;-76
2021/07/10 01:21:21;;;;;;;19.90;11.68;;;21.30;75.70;;;;;;5124789;28;20032;-75
2021/07/10 01:23:48;;;;;;;21.90;12.43;;;21.30;75.70;;;;;;5113540;28;20040;-75
2021/07/10 01:26:14;;;;;;;25.02;13.10;;;21.30;75.80;;;;;;5112372;28;20121;-76
2021/07/10 01:28:43;;;;;;;20.50;13.63;;;21.30;75.80;;;;;;5113045;28;20078;-75
2021/07/10 01:31:09;;;;;;;20.45;12.98;;;21.30;76.00;;;;;;5112467;28;20131;-75
2021/07/10 01:33:36;;;;;;;19.33;13.38;;;21.30;76.00;;;;;;5111499;28;20448;-75
2021/07/10 01:36:02;;;;;;;20.27;13.38;;;21.30;76.20;;;;;;5113024;28;20059;-75
2021/07/10 01:38:28;;;;;;;22.60;13.52;;;21.30;76.40;;;;;;5110328;28;20050;-75
2021/07/10 01:40:53;;;;;;;22.55;13.77;;;21.20;76.50;;;;;;5111718;28;20024;-75
2021/07/10 01:43:22;;;;;;;22.20;13.05;;;21.30;76.60;;;;;;5111854;28;20036;-75
2021/07/10 01:45:47;;;;;;;21.63;13.90;;;21.20;76.70;;;;;;5115745;28;20442;-75
2021/07/10 01:48:16;;;;;;;20.00;13.60;;;21.20;76.60;;;;;;5110578;28;20062;-75
2021/07/10 01:50:44;;;;;;;19.50;13.63;;;21.20;76.70;;;;;;5111362;28;20458;-75
2021/07/10 01:53:11;;;;;;;18.77;13.02;;;21.20;76.90;;;;;;5115619;28;20032;-75
2021/07/10 01:55:37;;;;;;;21.25;13.48;;;21.20;76.90;;;;;;5113644;28;20027;-75
2021/07/10 01:58:04;;;;;;;20.83;13.35;;;21.20;76.90;;;;;;5108332;27;20032;-75
2021/07/10 02:00:33;;;;;;;19.67;13.18;;;21.20;76.90;;;;;;5115634;27;20028;-75
2021/07/10 02:02:58;;;;;;;19.25;12.73;;;21.10;76.90;;;;;;5116968;27;20039;-75
2021/07/10 02:05:26;;;;;;;23.02;12.73;;;21.10;76.80;;;;;;5116250;27;20028;-75
2021/07/10 02:07:53;;;;;;;22.85;12.35;;;21.10;76.90;;;;;;5110460;28;20030;-75
2021/07/10 02:10:21;;;;;;;24.20;12.80;;;21.10;77.00;;;;;;5102116;28;20035;-75
2021/07/10 02:12:48;;;;;;;19.52;12.68;;;21.10;77.00;;;;;;5109134;27;20028;-75
2021/07/10 02:15:14;;;;;;;22.77;12.55;;;21.00;76.90;;;;;;5100549;28;20024;-75
2021/07/10 02:17:44;;;;;;;21.40;12.40;;;21.00;76.80;;;;;;5110490;27;20043;-75
2021/07/10 02:20:12;;;;;;;26.52;14.05;;;21.10;76.80;;;;;;5115680;27;20031;-75
2021/07/10 02:22:38;;;;;;;19.90;13.52;;;21.00;76.70;;;;;;5113772;28;20056;-75
2021/07/10 02:25:07;;;;;;;22.20;12.45;;;21.00;76.60;;;;;;5114472;27;20118;-76
2021/07/10 02:27:32;;;;;;;22.92;13.32;;;21.00;76.30;;;;;;5115597;28;20061;-75
2021/07/10 02:29:58;;;;;;;20.83;13.43;;;21.00;76.10;;;;;;5113605;28;20413;-75
2021/07/10 02:32:24;;;;;;;20.70;12.40;;;20.90;75.90;;;;;;5106843;28;20112;-75
2021/07/10 02:34:50;;;;;;;20.20;12.65;;;20.90;75.90;;;;;;5115165;28;20114;-75
2021/07/10 02:37:15;;;;;;;21.90;11.82;;;20.90;75.90;;;;;;5115320;28;20061;-75
2021/07/10 02:39:41;;;;;;;25.20;14.35;;;20.90;76.00;;;;;;5110060;28;20088;-75
2021/07/10 02:42:07;;;;;;;22.77;13.93;;;20.80;76.10;;;;;;5114891;27;20031;-75
2021/07/10 02:44:32;;;;;;;26.35;13.75;;;20.80;76.40;;;;;;5108890;27;20101;-75
2021/07/10 02:46:58;;;;;;;22.13;13.40;;;20.80;76.40;;;;;;5117427;27;20028;-75
2021/07/10 02:49:23;;;;;;;21.27;12.98;;;20.80;76.40;;;;;;5113804;27;20106;-75
2021/07/10 02:51:49;;;;;;;26.83;14.02;;;20.70;76.30;;;;;;5112750;28;20016;-75
2021/07/10 02:54:18;;;;;;;18.50;12.40;;;20.70;76.30;;;;;;5114876;28;20024;-75
2021/07/10 02:56:44;;;;;;;23.45;13.23;;;20.70;76.10;;;;;;5111669;28;20053;-75
2021/07/10 02:59:12;;;;;;;21.55;13.13;;;20.70;76.10;;;;;;5113070;28;20027;-75
2021/07/10 03:01:38;;;;;;;24.85;14.27;;;20.60;76.20;;;;;;5110735;27;20020;-75
2021/07/10 03:04:04;;;;;;;25.02;14.43;;;20.60;76.40;;;;;;5128594;27;20066;-75
2021/07/10 03:06:30;;;;;;;26.45;14.13;;;20.50;76.30;;;;;;5113814;27;20062;-75
2021/07/10 03:08:55;;;;;;;22.73;13.60;;;20.50;76.30;;;;;;5126390;27;20034;-75
2021/07/10 03:11:21;;;;;;;25.55;14.48;;;20.50;76.40;;;;;;5114958;27;20040;-76
2021/07/10 03:13:46;;;;;;;28.00;15.30;;;20.50;76.50;;;;;;5112063;27;20059;-75
2021/07/10 03:16:12;;;;;;;22.77;13.50;;;20.50;76.70;;;;;;5114211;28;20030;-75
2021/07/10 03:18:38;;;;;;;23.40;15.15;;;20.50;76.80;;;;;;5112217;28;20031;-75
2021/07/10 03:21:03;;;;;;;26.20;13.18;;;20.50;76.90;;;;;;5117562;28;20028;-75
2021/07/10 03:23:32;;;;;;;24.30;13.05;;;20.50;76.90;;;;;;5119749;28;20039;-75
2021/07/10 03:25:58;;;;;;;25.02;14.20;;;20.40;76.80;;;;;;5101152;28;20024;-75
2021/07/10 03:28:27;;;;;;;22.40;12.70;;;20.40;76.80;;;;;;5112319;28;20032;-75
2021/07/10 03:30:53;;;;;;;24.80;12.90;;;20.40;76.70;;;;;;5110625;28;20039;-75
2021/07/10 03:33:23;;;;;;;24.70;14.63;;;20.40;76.60;;;;;;5113078;28;20035;-75
2021/07/10 03:35:50;;;;;;;27.17;14.50;;;20.30;76.60;;;;;;5114901;27;20459;-75
2021/07/10 03:38:16;;;;;;;28.65;16.50;;;20.30;76.60;;;;;;5092447;28;20032;-75
2021/07/10 03:40:42;;;;;;;25.42;15.00;;;20.20;76.70;;;;;;5106235;28;20032;-75
2021/07/10 03:43:08;;;;;;;26.17;15.73;;;20.20;76.80;;;;;;5101319;27;20067;-75
2021/07/10 03:45:34;;;;;;;26.25;15.15;;;20.20;76.60;;;;;;5123850;27;20066;-75
2021/07/10 03:48:03;;;;;;;29.85;16.35;;;20.20;76.60;;;;;;5109455;28;20123;-75
2021/07/10 03:50:28;;;;;;;26.08;16.00;;;20.10;76.70;;;;;;5102877;28;20038;-75
2021/07/10 03:52:54;;;;;;;35.47;16.48;;;20.10;76.70;;;;;;5124423;27;20035;-76
2021/07/10 03:55:20;;;;;;;26.50;15.07;;;20.10;76.70;;;;;;5110925;28;20513;-76
2021/07/10 03:57:46;;;;;;;30.75;16.23;;;20.10;76.80;;;;;;5113041;28;20036;-75
2021/07/10 04:00:15;;;;;;;28.00;16.83;;;20.00;76.90;;;;;;5116386;27;20023;-76
2021/07/10 04:02:41;;;;;;;27.92;15.80;;;20.00;77.10;;;;;;5131804;27;20070;-75
2021/07/10 04:05:08;;;;;;;27.52;14.63;;;19.90;77.00;;;;;;5111119;27;20364;-75
2021/07/10 04:07:34;;;;;;;28.65;14.98;;;19.90;76.90;;;;;;5108285;28;20027;-75
2021/07/10 04:10:05;;;;;;;26.67;14.63;;;19.90;76.90;;;;;;5111846;27;20063;-75
2021/07/10 04:12:30;;;;;;;26.80;15.38;;;19.90;77.00;;;;;;5111733;27;20027;-75
2021/07/10 04:15:00;;;;;;;26.55;15.30;;;19.90;77.00;;;;;;5119264;27;20486;-75
2021/07/10 04:17:27;;;;;;;32.38;15.38;;;19.90;76.90;;;;;;5117425;28;20034;-75
2021/07/10 04:19:53;;;;;;;29.85;16.77;;;19.90;77.20;;;;;;5128003;27;20031;-75
2021/07/10 04:22:19;;;;;;;25.23;15.52;;;19.80;77.30;;;;;;5122873;28;20050;-75
2021/07/10 04:24:44;;;;;;;26.83;16.63;;;19.80;77.30;;;;;;5116305;28;20058;-75
2021/07/10 04:27:10;;;;;;;31.67;17.08;;;19.90;77.40;;;;;;5112043;28;20023;-75
2021/07/10 04:29:35;;;;;;;28.50;16.80;;;19.90;77.40;;;;;;5112803;28;20043;-76
2021/07/10 04:32:01;;;;;;;26.35;15.43;;;19.80;77.30;;;;;;5123482;27;20077;-78
2021/07/10 04:34:27;;;;;;;29.52;16.40;;;19.80;77.10;;;;;;5114668;27;20031;-75
2021/07/10 04:36:52;;;;;;;25.20;15.52;;;19.80;77.00;;;;;;5125995;27;20031;-78
2021/07/10 04:39:18;;;;;;;28.45;15.57;;;19.80;77.00;;;;;;5123001;27;20065;-78
2021/07/10 04:41:44;;;;;;;28.50;16.05;;;19.80;77.20;;;;;;5119003;27;20028;-78
2021/07/10 04:44:09;;;;;;;26.33;15.52;;;19.80;77.30;;;;;;5124519;27;20023;-78
2021/07/10 04:46:35;;;;;;;27.17;16.25;;;19.80;77.30;;;;;;5111796;28;20020;-78
2021/07/10 04:49:01;;;;;;;27.83;15.45;;;19.70;77.40;;;;;;5111690;28;20058;-78
2021/07/10 04:51:26;;;;;;;27.27;16.35;;;19.80;77.70;;;;;;5121273;28;20385;-78
2021/07/10 04:53:52;;;;;;;25.90;16.15;;;19.80;77.80;;;;;;5111104;28;20467;-78
2021/07/10 04:56:17;;;;;;;30.85;16.00;;;19.80;77.80;;;;;;5120066;28;20034;-78
2021/07/10 04:58:49;;;;;;;28.42;14.57;;;19.80;77.70;;;;;;5109582;28;20830;-78
2021/07/10 05:01:15;;;;;;;23.85;14.13;;;19.80;77.70;;;;;;5126498;28;20118;-78
2021/07/10 05:03:41;;;;;;;24.17;13.90;;;19.80;77.70;;;;;;5111569;28;20162;-78
2021/07/10 05:06:13;;;;;;;25.02;14.07;;;19.70;78.30;;;;;;5109863;28;20035;-78
2021/07/10 05:08:38;;;;;;;31.50;13.60;;;19.80;77.80;;;;;;5112389;28;20032;-78
2021/07/10 05:11:04;;;;;;;22.48;13.18;;;19.70;77.70;;;;;;5112173;28;20378;-78
2021/07/10 05:13:33;;;;;;;21.05;12.63;;;19.70;77.70;;;;;;5120750;28;20470;-78
2021/07/10 05:15:59;;;;;;;22.52;12.85;;;19.70;77.60;;;;;;5111310;28;20390;-78
2021/07/10 05:18:24;;;;;;;31.25;13.57;;;19.80;77.80;;;;;;5102467;28;20077;-78
2021/07/10 05:20:50;;;;;;;21.85;13.88;;;19.70;77.80;;;;;;5111888;28;20027;-78
2021/07/10 05:23:16;;;;;;;25.00;13.65;;;19.70;77.90;;;;;;5114183;28;20040;-77
2021/07/10 05:25:42;;;;;;;26.75;13.45;;;19.80;78.20;;;;;;5115028;28;20024;-78
2021/07/10 05:28:07;;;;;;;77.68;14.15;;;19.80;78.40;;;;;;5120022;27;20041;-72
2021/07/10 05:30:33;;;;;;;28.30;13.80;;;19.80;78.70;;;;;;5116574;28;20016;-70
2021/07/10 05:32:59;;;;;;;25.55;13.73;;;19.80;78.80;;;;;;5116109;28;20050;-70
2021/07/10 05:35:26;;;;;;;28.25;14.30;;;19.80;78.90;;;;;;5098072;28;20032;-69
2021/07/10 05:37:53;;;;;;;21.90;13.82;;;19.90;79.10;;;;;;5126271;27;20027;-70
2021/07/10 05:40:19;;;;;;;25.38;13.55;;;19.90;79.50;;;;;;5135595;27;20042;-70
2021/07/10 05:42:48;;;;;;;30.33;14.95;;;19.90;79.80;;;;;;5122770;27;20474;-70
2021/07/10 05:45:17;;;;;;;26.67;13.52;;;19.90;79.80;;;;;;5117066;28;20103;-71
2021/07/10 05:47:43;;;;;;;26.30;14.00;;;19.90;79.60;;;;;;5115272;27;20385;-70
2021/07/10 05:50:13;;;;;;;24.30;13.00;;;20.00;79.80;;;;;;5115481;27;20027;-71
2021/07/10 05:52:40;;;;;;;22.65;13.32;;;19.90;79.60;;;;;;5116282;28;20039;-71
2021/07/10 05:55:07;;;;;;;19.42;11.98;;;20.00;79.50;;;;;;5112628;27;20047;-70
2021/07/10 05:57:37;;;;;;;18.13;11.45;;;19.90;79.30;;;;;;5115991;28;20024;-71
2021/07/10 06:00:07;;;;;;;20.10;11.07;;;19.90;79.10;;;;;;5116609;27;20036;-70
2021/07/10 06:02:33;;;;;;;16.98;10.50;;;19.90;78.60;;;;;;5115905;27;20024;-70
2021/07/10 06:04:59;;;;;;;18.25;11.07;;;20.00;77.70;;;;;;5115320;28;20081;-71
2021/07/10 06:07:24;;;;;;;18.13;11.15;;;20.00;78.10;;;;;;5118800;27;20065;-71
2021/07/10 06:09:50;;;;;;;17.58;10.93;;;20.00;77.90;;;;;;5132977;27;20015;-70
2021/07/10 06:12:16;;;;;;;16.40;9.18;;;20.00;77.80;;;;;;5117269;27;20547;-70
2021/07/10 06:14:41;;;;;;;17.17;10.43;;;20.00;77.40;;;;;;5118801;27;20047;-70
2021/07/10 06:17:07;;;;;;;17.55;9.82;;;20.00;77.70;;;;;;5105416;27;20023;-69
2021/07/10 06:19:33;;;;;;;17.38;10.57;;;20.00;77.70;;;;;;5117349;27;20035;-70
2021/07/10 06:21:59;;;;;;;17.67;10.18;;;20.00;77.40;;;;;;5105574;27;20044;-71
2021/07/10 06:24:26;;;;;;;15.63;10.45;;;20.10;77.40;;;;;;5102842;27;20027;-70
2021/07/10 06:26:52;;;;;;;17.58;9.10;;;20.10;77.80;;;;;;5127814;27;20039;-70
2021/07/10 06:29:18;;;;;;;14.00;9.45;;;20.10;77.60;;;;;;5114476;28;20467;-70
2021/07/10 06:31:43;;;;;;;16.92;9.52;;;20.10;77.70;;;;;;5114224;28;20039;-69
2021/07/10 06:34:09;;;;;;;16.67;9.27;;;20.10;77.50;;;;;;5114291;28;20031;-71
2021/07/10 06:36:37;;;;;;;14.07;8.93;;;20.20;77.00;;;;;;5115035;28;20028;-71
2021/07/10 06:39:04;;;;;;;15.57;8.60;;;20.10;76.90;;;;;;5114948;27;20100;-76
2021/07/10 06:41:30;;;;;;;11.65;7.35;;;20.10;77.10;;;;;;5116228;28;20111;-71
2021/07/10 06:43:55;;;;;;;9.63;5.70;;;20.20;76.50;;;;;;5112264;28;20118;-71
2021/07/10 06:46:21;;;;;;;14.73;7.68;;;20.20;76.10;;;;;;5114295;27;20076;-71
2021/07/10 06:48:47;;;;;;;12.05;8.43;;;20.20;76.50;;;;;;5115404;28;20472;-71
2021/07/10 06:51:16;;;;;;;10.38;6.35;;;20.30;76.40;;;;;;5113472;28;20041;-71
2021/07/10 06:53:43;;;;;;;14.38;7.82;;;20.30;76.00;;;;;;5115038;28;20084;-71
2021/07/10 06:56:08;;;;;;;13.60;6.32;;;20.40;76.40;;;;;;5114442;28;20031;-70
2021/07/10 06:58:34;;;;;;;9.93;5.57;;;20.40;76.40;;;;;;5109767;27;20038;-71
2021/07/10 07:01:00;;;;;;;9.48;5.82;;;20.50;75.90;;;;;;5114625;28;20019;-71
2021/07/10 07:03:26;;;;;;;7.85;5.10;;;20.50;75.80;;;;;;5114169;27;20394;-73
2021/07/10 07:05:51;;;;;;;6.07;3.83;;;20.60;76.20;;;;;;5103573;28;20403;-74
2021/07/10 07:08:17;;;;;;;5.15;3.03;;;20.60;75.80;;;;;;5114321;28;20055;-73
2021/07/10 07:10:43;;;;;;;6.25;4.13;;;20.70;75.50;;;;;;5119494;27;20532;-73
2021/07/10 07:13:09;;;;;;;5.95;4.10;;;20.70;75.30;;;;;;5112182;28;20114;-74
2021/07/10 07:15:35;;;;;;;8.85;4.40;;;20.70;74.60;;;;;;5114198;28;20512;-73
2021/07/10 07:18:00;;;;;;;8.82;4.00;;;20.70;74.50;;;;;;5114018;28;20031;-74
2021/07/10 07:20:26;;;;;;;7.38;4.43;;;20.80;74.30;;;;;;5115787;27;20019;-74
2021/07/10 07:22:52;;;;;;;5.50;3.75;;;20.80;74.10;;;;;;5134226;27;20490;-74
2021/07/10 07:25:20;;;;;;;5.30;3.90;;;20.80;73.90;;;;;;5132852;27;20027;-73
2021/07/10 07:27:47;;;;;;;15.40;4.18;;;20.80;73.60;;;;;;5125116;27;20023;-74
2021/07/10 07:30:13;;;;;;;7.22;4.22;;;20.90;73.90;;;;;;5119549;27;20043;-72
2021/07/10 07:32:42;;;;;;;7.97;4.13;;;20.90;73.90;;;;;;5115158;27;20030;-72
2021/07/10 07:35:10;;;;;;;6.65;4.00;;;20.90;74.10;;;;;;5114961;28;20029;-72
2021/07/10 07:37:36;;;;;;;9.65;3.65;;;21.00;74.00;;;;;;5114233;28;20716;-71
2021/07/10 07:40:03;;;;;;;9.68;4.10;;;21.00;73.90;;;;;;5120348;27;20031;-72
2021/07/10 07:42:29;;;;;;;6.55;3.72;;;21.00;73.80;;;;;;5120492;27;20060;-73
2021/07/10 07:44:55;;;;;;;7.13;3.15;;;21.00;73.10;;;;;;5117646;27;20513;-71
2021/07/10 07:47:27;;;;;;;6.40;3.90;;;21.00;72.10;;;;;;5124877;27;20027;-73
2021/07/10 07:49:52;;;;;;;6.85;3.38;;;21.10;72.40;;;;;;5121181;27;20412;-73
2021/07/10 07:52:18;;;;;;;4.15;3.03;;;21.10;72.40;;;;;;5124154;27;20061;-73
2021/07/10 07:54:44;;;;;;;4.95;3.22;;;21.10;72.70;;;;;;5121136;27;20027;-73
2021/07/10 07:57:10;;;;;;;3.60;2.70;;;21.10;72.00;;;;;;5124886;27;20495;-73
2021/07/10 07:59:35;;;;;;;4.53;2.70;;;21.20;72.20;;;;;;5115128;27;20042;-73
2021/07/10 08:02:01;;;;;;;4.95;2.67;;;21.20;71.90;;;;;;5120169;27;20043;-73
2021/07/10 08:04:27;;;;;;;3.40;2.55;;;21.20;71.70;;;;;;5120336;27;20407;-73
2021/07/10 08:06:53;;;;;;;4.70;2.58;;;21.30;71.90;;;;;;5111699;27;20066;-73
2021/07/10 08:09:19;;;;;;;2.78;2.13;;;21.40;71.50;;;;;;5113087;27;20073;-73
2021/07/10 08:11:45;;;;;;;6.45;2.80;;;21.40;71.50;;;;;;5114796;27;20020;-73
2021/07/10 08:14:12;;;;;;;3.45;2.65;;;21.50;71.40;;;;;;5114380;27;20046;-72
2021/07/10 08:16:39;;;;;;;3.55;2.72;;;21.50;70.90;;;;;;5118452;27;20033;-73
2021/07/10 08:19:05;;;;;;;5.25;2.38;;;21.50;70.90;;;;;;5116197;27;20031;-73
2021/07/10 08:21:33;;;;;;;5.63;2.60;;;21.60;71.00;;;;;;5124544;27;20079;-73
2021/07/10 08:24:00;;;;;;;5.43;2.80;;;21.60;71.00;;;;;;5117687;27;20055;-73
2021/07/10 08:26:27;;;;;;;6.38;3.22;;;21.60;71.10;;;;;;5120481;27;20023;-73
2021/07/10 08:28:59;;;;;;;4.20;2.80;;;21.60;70.90;;;;;;5116718;27;20041;-73
2021/07/10 08:31:26;;;;;;;6.10;2.80;;;21.70;70.80;;;;;;5125686;27;20034;-73
2021/07/10 08:33:52;;;;;;;4.50;2.80;;;21.70;70.80;;;;;;5119463;27;20037;-73
2021/07/10 08:36:17;;;;;;;3.95;2.97;;;21.70;71.00;;;;;;5117849;27;20036;-73
2021/07/10 08:38:43;;;;;;;6.80;2.70;;;21.70;70.80;;;;;;5116341;27;20032;-73
2021/07/10 08:41:11;;;;;;;5.47;3.05;;;21.70;70.70;;;;;;5121705;27;20034;-73
2021/07/10 08:43:39;;;;;;;5.32;2.75;;;21.70;70.10;;;;;;5123310;27;20126;-73
2021/07/10 08:46:06;;;;;;;6.10;2.55;;;21.80;70.10;;;;;;5116173;27;20031;-74
2021/07/10 08:48:34;;;;;;;4.15;2.28;;;21.80;70.10;;;;;;5115088;27;20039;-73
2021/07/10 08:51:04;;;;;;;4.47;2.65;;;21.80;69.40;;;;;;5118800;28;20052;-73
2021/07/10 08:53:31;;;;;;;4.47;2.92;;;21.90;68.90;;;;;;5119329;28;20069;-73
2021/07/10 08:56:00;;;;;;;5.50;3.00;;;21.90;69.10;;;;;;5115779;27;20429;-73
2021/07/10 08:58:26;;;;;;;3.10;2.42;;;21.90;68.80;;;;;;5122516;27;20036;-73
2021/07/10 09:00:52;;;;;;;3.95;2.72;;;22.00;69.00;;;;;;5121338;27;20452;-73
2021/07/10 09:03:18;;;;;;;3.92;2.63;;;22.00;69.20;;;;;;5124997;27;20031;-73
2021/07/10 09:05:44;;;;;;;5.82;2.38;;;22.10;68.90;;;;;;5120874;27;20027;-73
2021/07/10 09:08:24;;;;;;;4.03;2.60;;;22.10;69.00;;;;;;5120388;27;20031;-73
2021/07/10 09:11:14;;;;;;;4.22;2.40;;;22.10;68.50;;;;;;5103377;27;20027;-73
2021/07/10 09:13:51;;;;;;;4.07;2.70;;;22.20;69.00;;;;;;5122786;27;20030;-73
2021/07/10 09:16:23;;;;;;;4.85;2.90;;;22.20;67.90;;;;;;5118831;27;20486;-73
2021/07/10 09:19:08;;;;;;;4.82;2.50;;;22.20;68.00;;;;;;5123727;27;20360;-72
2021/07/10 09:21:43;;;;;;;3.80;2.47;;;22.30;68.10;;;;;;5119507;27;20558;-74
2021/07/10 09:24:14;;;;;;;3.65;2.50;;;22.30;68.00;;;;;;5124564;27;20513;-73
2021/07/10 09:26:52;;;;;;;6.07;2.78;;;22.40;68.10;;;;;;5118135;27;20031;-73
2021/07/10 09:29:28;;;;;;;10.32;2.40;;;22.40;68.40;;;;;;5115101;27;20439;-73
2021/07/10 09:31:57;;;;;;;3.78;2.45;;;22.50;68.70;;;;;;5126151;27;20026;-73
2021/07/10 09:34:33;;;;;;;4.55;2.53;;;22.50;69.20;;;;;;5115774;28;20032;-75
2021/07/10 09:37:02;;;;;;;4.32;2.25;;;22.50;69.60;;;;;;5115987;28;20038;-73
2021/07/10 09:39:33;;;;;;;5.97;2.58;;;22.50;69.80;;;;;;5127555;27;20035;-73
2021/07/10 09:42:00;;;;;;;8.18;2.42;;;22.50;69.10;;;;;;5117097;27;20030;-73
2021/07/10 09:44:43;;;;;;;4.28;2.58;;;22.60;69.20;;;;;;5116707;28;20042;-72
2021/07/10 09:47:09;;;;;;;4.47;2.55;;;22.60;70.00;;;;;;5116994;28;20425;-72
2021/07/10 09:49:35;;;;;;;4.40;2.53;;;22.60;71.00;;;;;;5119777;28;20539;-73
2021/07/10 09:52:04;;;;;;;4.55;2.53;;;22.60;70.80;;;;;;5129124;27;20038;-73
2021/07/10 09:54:36;;;;;;;6.47;3.40;;;22.60;71.10;;;;;;5131864;27;20494;-72
2021/07/10 09:57:06;;;;;;;3.78;2.40;;;22.60;70.50;;;;;;5117461;27;20474;-73
2021/07/10 10:00:05;;;;;;;8.40;3.00;;;22.60;70.00;;;;;;5121618;27;20085;-73
2021/07/10 10:02:34;;;;;;;3.92;2.30;;;22.60;69.50;;;;;;5100395;28;20092;-73
2021/07/10 10:05:11;;;;;;;4.07;2.40;;;22.60;69.90;;;;;;5119878;27;20406;-78
2021/07/10 10:07:42;;;;;;;3.25;2.40;;;22.60;69.40;;;;;;5101954;27;20031;-73
2021/07/10 10:10:31;;;;;;;6.10;2.47;;;22.70;68.90;;;;;;5114909;27;20019;-74
2021/07/10 10:13:05;;;;;;;4.30;2.75;;;22.70;69.10;;;;;;5121175;27;20023;-74
2021/07/10 10:15:32;;;;;;;11.82;2.80;;;22.70;68.00;;;;;;5122693;27;20023;-74
2021/07/10 10:17:58;;;;;;;7.13;2.50;;;22.80;68.70;;;;;;5125328;27;20023;-73
2021/07/10 10:20:25;;;;;;;4.93;2.50;;;22.80;69.20;;;;;;5125151;27;20538;-74
2021/07/10 10:22:51;;;;;;;5.65;2.72;;;22.80;69.10;;;;;;5126284;27;20130;-73
2021/07/10 10:25:20;;;;;;;4.88;2.58;;;22.90;69.40;;;;;;5124253;27;20100;-74
2021/07/10 10:27:49;;;;;;;4.20;2.67;;;22.90;69.50;;;;;;5124792;27;20027;-74
2021/07/10 10:30:19;;;;;;;5.07;2.80;;;23.00;69.10;;;;;;5123836;27;20028;-73
2021/07/10 10:32:45;;;;;;;6.75;2.75;;;22.90;68.00;;;;;;5127985;27;20426;-73
2021/07/10 10:35:12;;;;;;;7.30;3.05;;;23.00;67.40;;;;;;5105314;28;20015;-73
2021/07/10 10:37:45;;;;;;;8.18;2.95;;;22.90;66.90;;;;;;5124944;27;20036;-74
2021/07/10 10:40:13;;;;;;;6.32;2.58;;;23.00;66.40;;;;;;5123348;27;20114;-73
2021/07/10 10:42:41;;;;;;;3.53;2.42;;;23.00;66.80;;;;;;5127267;27;20043;-73
2021/07/10 10:45:07;;;;;;;6.43;2.88;;;23.10;67.10;;;;;;5118933;27;20026;-73
2021/07/10 10:47:50;;;;;;;3.17;2.60;;;23.10;66.90;;;;;;5125780;27;20030;-73
2021/07/10 10:50:30;;;;;;;4.35;2.92;;;23.20;66.50;;;;;;5120677;27;20055;-73
2021/07/10 10:52:58;;;;;;;3.83;2.55;;;23.30;67.30;;;;;;5115004;27;20035;-74
2021/07/10 10:55:36;;;;;;;5.22;2.58;;;23.30;67.90;;;;;;5125844;27;20061;-73
2021/07/10 10:58:40;;;;;;;3.25;2.08;;;23.30;67.90;;;;;;5125031;27;20043;-74
2021/07/10 11:01:09;;;;;;;10.20;2.78;;;23.30;68.00;;;;;;5123735;27;20068;-73
2021/07/10 11:03:42;;;;;;;3.88;2.70;;;23.30;68.60;;;;;;5100664;27;20075;-73
2021/07/10 11:06:31;;;;;;;5.75;2.85;;;23.30;66.50;;;;;;5117767;27;20027;-73
2021/07/10 11:08:58;;;;;;;4.53;3.00;;;23.40;66.30;;;;;;5118148;27;20043;-73
2021/07/10 11:11:33;;;;;;;4.53;2.90;;;23.40;65.60;;;;;;5117611;27;20053;-73
2021/07/10 11:14:34;;;;;;;9.32;2.95;;;23.40;65.00;;;;;;5113313;28;20147;-73
2021/07/10 11:17:10;;;;;;;5.32;3.20;;;23.40;65.00;;;;;;5114326;27;20034;-73
2021/07/10 11:19:43;;;;;;;4.78;2.80;;;23.50;64.50;;;;;;5110925;28;20076;-73
2021/07/10 11:22:09;;;;;;;8.98;3.80;;;23.50;64.10;;;;;;5109103;27;20048;-73
2021/07/10 11:24:46;;;;;;;6.13;3.45;;;23.50;63.70;;;;;;5114033;27;20084;-73
2021/07/10 11:27:11;;;;;;;4.00;2.90;;;23.50;62.60;;;;;;5114340;27;20421;-72
2021/07/10 11:29:41;;;;;;;6.03;3.20;;;23.50;62.80;;;;;;5112705;28;20027;-73
2021/07/10 11:32:15;;;;;;;6.43;3.05;;;23.50;63.20;;;;;;5113405;28;20034;-72
2021/07/10 11:34:46;;;;;;;5.05;2.78;;;23.60;62.80;;;;;;5111128;28;20557;-73
2021/07/10 11:37:23;;;;;;;5.63;3.20;;;23.60;63.30;;;;;;5114709;27;20508;-73
2021/07/10 11:39:56;;;;;;;5.28;2.95;;;23.70;62.90;;;;;;5114253;27;20142;-72
2021/07/10 11:42:26;;;;;;;5.85;3.13;;;23.70;63.20;;;;;;5125824;27;20034;-73
2021/07/10 11:44:54;;;;;;;5.00;2.90;;;23.80;63.20;;;;;;5126350;27;20105;-73
2021/07/10 11:47:40;;;;;;;5.22;3.03;;;23.80;62.60;;;;;;5122678;27;20027;-73
2021/07/10 11:50:15;;;;;;;5.25;3.47;;;23.80;62.60;;;;;;5116164;27;20067;-73
2021/07/10 11:52:52;;;;;;;4.82;2.80;;;23.90;63.00;;;;;;5113092;27;20047;-73
2021/07/10 11:55:24;;;;;;;4.05;3.00;;;23.90;63.20;;;;;;5113602;27;20054;-70
2021/07/10 11:57:50;;;;;;;4.77;3.10;;;24.00;64.60;;;;;;5116718;27;20058;-70
2021/07/10 12:00:16;;;;;;;5.25;2.88;;;23.90;64.60;;;;;;5110557;27;20055;-73
2021/07/10 12:02:46;;;;;;;5.75;3.03;;;24.00;65.20;;;;;;5119456;27;20039;-74
2021/07/10 12:05:17;;;;;;;5.55;3.33;;;24.00;66.40;;;;;;5107827;28;20118;-73
2021/07/10 12:07:48;;;;;;;4.53;2.92;;;24.10;67.10;;;;;;5121142;27;20307;-73
2021/07/10 12:10:23;;;;;;;3.95;2.97;;;24.00;67.50;;;;;;5115598;27;20027;-74
2021/07/10 12:12:54;;;;;;;23.05;3.75;;;24.10;67.40;;;;;;5112770;28;20032;-72
2021/07/10 12:15:32;;;;;;;8.15;3.40;;;24.10;67.10;;;;;;5100304;28;20066;-73
2021/07/10 12:18:03;;;;;;;6.00;2.70;;;24.10;67.10;;;;;;5105878;28;20047;-73
2021/07/10 12:20:39;;;;;;;4.05;2.60;;;24.10;68.00;;;;;;5104631;28;20028;-73
2021/07/10 12:23:10;;;;;;;4.72;2.97;;;24.10;68.00;;;;;;5111231;27;20069;-74
2021/07/10 12:25:54;;;;;;;5.43;2.90;;;24.20;67.50;;;;;;5110673;28;20627;-73
2021/07/10 12:28:28;;;;;;;;;;;24.10;68.30;;;;;;5112569;28;20023;-73
2021/07/10 12:30:56;;;;;;;4.63;3.08;;;24.10;70.00;;;;;;5123609;27;19912;-75
2021/07/10 12:33:39;;;;;;;6.13;2.80;;;24.20;69.50;;;;;;5111104;28;20099;-71
2021/07/10 12:36:26;;;;;;;5.18;2.55;;;24.10;69.20;;;;;;5109883;28;20035;-71
2021/07/10 12:39:02;;;;;;;4.75;3.08;;;24.20;70.10;;;;;;5112130;28;20040;-71
2021/07/10 12:41:54;;;;;;;4.95;3.17;;;24.10;69.10;;;;;;5111545;28;20023;-72